Airfield :
LOGIN :

Register | Disclaimer

   EN    FR    IT 

 










Legend :    VFR   Marginal VFR   IFR   Intensive IFR   Very Intensive IFR
Visi :
Ceiling :
>= 8 km
>= 3000ft
5 to 8 km
1000 to 3000 ft
1500m to 5 km
500 to 1000 ft
800 to 1500m
200 to 500 ft
< 800m
< 200 ft
Symbols :   Thunderstorms  Fog  Heavy snow  Heavy precipitations  Wind > 20 kt
SIGMETs :     Misc.  Thunderstorms  Icing  Turbulence  Mountain Waves  Volcanic Ashes







- Airport Elevation : 359 ft
- IATA code : BVA
- Download approach charts


LFOB - Beauvais

CURRENT METAR :
  • 151300Z AUTO 12006KT 0500 0450 R30/0800N R12/0650N FG VV/// 08/08 Q1022 BECMG 3000 BR OVC003

EXPIRED METARs :
  • 151230Z AUTO 14006KT 0600 R30/0900D R12/1000D FG VV/// 08/08 Q1022 BECMG 3000 BR OVC003
  • 151200Z AUTO 15005KT 0650 0550 R30/0900U R12/0800U FG VV/// 07/07 Q1023 BECMG 3000 BR OVC003
  • 151130Z AUTO 14005KT 0400 0350 R30/0650U R12/0500N FG VV/// 07/07 Q1023 BECMG 3000 BR OVC003
  • 151100Z AUTO 14006KT 0400 R30/0600N R12/0600U FG VV/// 07/07 Q1023 TEMPO SCT012 BECMG 6000 NSW
  • 151030Z AUTO 13005KT 0350 R30/0500N R12/0500N FG VV/// 07/07 Q1023 TEMPO SCT012 BECMG 6000 NSW

TAF TAF LFOB
Valid from the 15 at 12:00 until the 16 at 12:00 UTC


151100Z 1512/1612 12007KT 0500 FG VV///
BECMG 1512/1515 3000 BR OVC003
PROB40 1520/1611 0300 FG VV///
ATIS : +33 3 44 11 49 28
No reported NOTAMs for that airfield.



MET'MAP, your aeronautical weather chart ! - Copyright ORBIFLY December 2007 - Disclaimer

ORBIFLY MET'MAP TEAM :

Programming & Development : Alexandra Zaïnal
Concept & Development : Baudouin d'Aumeries
Co-Development & Prog : Marc-Olivier Méhu
Technical & hardware support : Manuel Goepfert

Contact : metmap@orbifly.com




SOURCES & CREDITS :

   NOAA